Time;durP1;ratioP1;P1;durP2;ratioP2;P2;SDS_P1;SDS_P2;PMS_P1;PMS_P2;Temp;Humidity;BMP_temperature;BMP_pressure;BME280_temperature;BME280_humidity;BME280_pressure;Samples;Min_cycle;Max_cycle;Signal;HPM_P1;HPM_P2
2021/11/16 00:00:46;;;;;;;;;36.75;36.00;;;;;;;;5091501;28;11442;-77
2021/11/16 00:03:13;;;;;;;;;25.50;20.75;;;;;;;;5085999;28;11539;-77
2021/11/16 00:05:41;;;;;;;;;37.25;25.75;;;;;;;;5099289;28;11602;-77
2021/11/16 00:08:10;;;;;;;;;19.50;16.00;;;;;;;;5089999;28;11550;-77
2021/11/16 00:10:39;;;;;;;;;21.50;17.75;;;;;;;;5082940;28;11986;-77
2021/11/16 00:13:10;;;;;;;;;14.25;13.75;;;;;;;;5080133;28;11126;-76
2021/11/16 00:15:38;;;;;;;;;20.25;15.25;;;;;;;;5070174;28;10987;-77
2021/11/16 00:18:06;;;;;;;;;17.00;15.00;;;;;;;;5090153;28;11158;-79
2021/11/16 00:20:37;;;;;;;;;22.50;15.00;;;;;;;;5087118;28;11241;-77
2021/11/16 00:23:04;;;;;;;;;19.00;17.50;;;;;;;;5095283;28;11181;-77
2021/11/16 00:25:34;;;;;;;;;15.00;15.00;;;;;;;;5083438;28;11290;-77
2021/11/16 00:28:02;;;;;;;;;13.75;11.25;;;;;;;;5080191;28;11175;-77
2021/11/16 00:30:29;;;;;;;;;19.50;19.00;;;;;;;;5078989;28;11170;-77
2021/11/16 00:32:57;;;;;;;;;34.50;29.50;;;;;;;;5088370;28;11625;-77
2021/11/16 00:35:24;;;;;;;;;25.50;23.50;;;;;;;;5081937;28;12667;-77
2021/11/16 00:37:52;;;;;;;;;32.00;28.50;;;;;;;;5090323;28;11233;-77
2021/11/16 00:40:21;;;;;;;;;37.50;30.50;;;;;;;;5081761;28;11525;-77
2021/11/16 00:42:51;;;;;;;;;29.25;24.50;;;;;;;;5091279;28;11615;-76
2021/11/16 00:45:19;;;;;;;;;27.75;24.25;;;;;;;;5089389;28;11573;-76
2021/11/16 00:47:47;;;;;;;;;21.00;15.50;;;;;;;;5090224;28;11324;-76
2021/11/16 00:50:16;;;;;;;;;21.00;20.25;;;;;;;;5083134;28;11278;-76
2021/11/16 00:52:44;;;;;;;;;18.75;17.75;;;;;;;;5090274;28;11081;-76
2021/11/16 00:55:12;;;;;;;;;24.50;21.50;;;;;;;;5080257;28;11179;-75
2021/11/16 00:57:39;;;;;;;;;24.50;20.75;;;;;;;;5083922;28;11470;-77
2021/11/16 01:00:11;;;;;;;;;21.75;17.50;;;;;;;;5086025;28;11162;-77
2021/11/16 01:02:38;;;;;;;;;23.25;19.25;;;;;;;;5080374;28;10958;-77
2021/11/16 01:05:07;;;;;;;;;23.50;19.25;;;;;;;;5083345;28;11192;-76
2021/11/16 01:07:35;;;;;;;;;19.00;17.00;;;;;;;;5084288;28;11151;-77
2021/11/16 01:10:02;;;;;;;;;24.25;24.25;;;;;;;;5085884;28;11071;-77
2021/11/16 01:12:30;;;;;;;;;22.25;15.25;;;;;;;;5087956;28;11214;-77
2021/11/16 01:14:57;;;;;;;;;15.25;15.25;;;;;;;;5086270;28;11245;-77
2021/11/16 01:17:27;;;;;;;;;23.50;22.75;;;;;;;;5086936;28;11134;-76
2021/11/16 01:19:54;;;;;;;;;26.25;25.25;;;;;;;;5086365;28;11552;-76
2021/11/16 01:22:22;;;;;;;;;26.50;24.50;;;;;;;;5087310;28;11515;-76
2021/11/16 01:24:49;;;;;;;;;30.25;24.00;;;;;;;;5086841;28;11541;-76
2021/11/16 01:27:20;;;;;;;;;45.50;39.00;;;;;;;;5086048;28;11509;-76
2021/11/16 01:29:48;;;;;;;;;50.50;38.00;;;;;;;;5088935;28;11539;-76
2021/11/16 01:32:28;;;;;;;;;52.25;42.00;;;;;;;;5086281;28;11491;-76
2021/11/16 01:34:56;;;;;;;;;45.75;41.25;;;;;;;;5087585;28;11530;-77
2021/11/16 01:37:24;;;;;;;;;22.25;16.50;;;;;;;;5079147;28;12458;-76
2021/11/16 01:39:52;;;;;;;;;14.75;14.75;;;;;;;;5085001;28;11074;-76
2021/11/16 01:42:20;;;;;;;;;22.25;18.00;;;;;;;;5093298;28;11125;-77
2021/11/16 01:44:48;;;;;;;;;26.00;26.00;;;;;;;;5093227;28;12414;-76
2021/11/16 01:47:15;;;;;;;;;47.50;33.50;;;;;;;;5085463;28;11540;-77
2021/11/16 01:49:44;;;;;;;;;40.00;30.25;;;;;;;;5085453;28;11521;-77
2021/11/16 01:52:13;;;;;;;;;21.25;19.00;;;;;;;;5091458;28;11535;-76
2021/11/16 01:54:41;;;;;;;;;19.75;16.50;;;;;;;;5082678;28;11298;-77
2021/11/16 01:57:08;;;;;;;;;15.50;11.00;;;;;;;;5093486;28;11106;-76
2021/11/16 01:59:36;;;;;;;;;24.75;15.50;;;;;;;;5087816;28;11191;-77
2021/11/16 02:02:06;;;;;;;;;12.25;10.25;;;;;;;;5120512;27;11226;-77
2021/11/16 02:04:33;;;;;;;;;6.00;5.00;;;;;;;;5097573;28;10920;-77
2021/11/16 02:07:01;;;;;;;;;17.50;11.25;;;;;;;;5086202;28;10979;-77
2021/11/16 02:09:30;;;;;;;;;20.75;16.00;;;;;;;;5086221;28;11122;-77
2021/11/16 02:11:57;;;;;;;;;12.25;12.25;;;;;;;;5097929;28;11183;-76
2021/11/16 02:14:24;;;;;;;;;21.25;14.50;;;;;;;;5089953;28;11482;-78
2021/11/16 02:16:52;;;;;;;;;18.00;15.50;;;;;;;;5090399;28;11447;-77
2021/11/16 02:19:21;;;;;;;;;22.50;22.50;;;;;;;;5091113;28;11912;-78
2021/11/16 02:21:51;;;;;;;;;33.25;32.00;;;;;;;;5088404;28;11717;-78
2021/11/16 02:24:19;;;;;;;;;23.50;18.50;;;;;;;;5092313;28;11633;-78
2021/11/16 02:26:47;;;;;;;;;19.50;15.25;;;;;;;;5095813;28;11317;-77
2021/11/16 02:29:15;;;;;;;;;16.75;14.00;;;;;;;;5079892;28;11199;-78
2021/11/16 02:31:43;;;;;;;;;18.50;18.25;;;;;;;;5095919;28;11112;-78
2021/11/16 02:34:12;;;;;;;;;24.00;21.75;;;;;;;;5090997;28;11525;-78
2021/11/16 02:36:41;;;;;;;;;27.50;27.50;;;;;;;;5091685;28;11473;-77
2021/11/16 02:39:12;;;;;;;;;28.50;25.75;;;;;;;;5085106;28;11492;-78
2021/11/16 02:41:41;;;;;;;;;22.50;17.50;;;;;;;;5084653;28;11604;-77
2021/11/16 02:44:09;;;;;;;;;15.00;13.25;;;;;;;;5090071;28;11230;-78
2021/11/16 02:46:37;;;;;;;;;18.50;16.25;;;;;;;;5086518;28;11267;-77
2021/11/16 02:49:04;;;;;;;;;17.75;16.50;;;;;;;;5079046;28;11138;-77
2021/11/16 02:51:34;;;;;;;;;18.75;15.50;;;;;;;;5090031;28;11163;-77
2021/11/16 02:54:02;;;;;;;;;25.75;15.00;;;;;;;;5083602;28;11305;-78
2021/11/16 02:56:31;;;;;;;;;14.25;14.25;;;;;;;;5091784;28;11129;-78
2021/11/16 02:58:58;;;;;;;;;18.25;16.00;;;;;;;;5084191;28;11052;-78
2021/11/16 03:01:26;;;;;;;;;28.50;22.25;;;;;;;;5082925;28;11125;-78
2021/11/16 03:03:53;;;;;;;;;24.00;20.75;;;;;;;;5092959;28;11112;-78
2021/11/16 03:06:21;;;;;;;;;26.25;22.00;;;;;;;;5099341;28;11144;-78
2021/11/16 03:08:48;;;;;;;;;14.50;14.50;;;;;;;;5086956;28;11982;-78
2021/11/16 03:11:16;;;;;;;;;22.00;16.00;;;;;;;;5092786;28;11116;-78
2021/11/16 03:13:46;;;;;;;;;20.25;15.25;;;;;;;;5091272;28;11119;-78
2021/11/16 03:16:15;;;;;;;;;15.75;11.00;;;;;;;;5090189;28;11092;-78
2021/11/16 03:18:46;;;;;;;;;23.50;18.50;;;;;;;;5088635;28;11069;-77
2021/11/16 03:21:15;;;;;;;;;18.75;18.75;;;;;;;;5086874;28;11142;-78
2021/11/16 03:23:44;;;;;;;;;20.50;19.25;;;;;;;;5084063;28;11091;-78
2021/11/16 03:26:13;;;;;;;;;20.75;19.50;;;;;;;;5087695;28;11101;-78
2021/11/16 03:28:44;;;;;;;;;23.25;17.00;;;;;;;;5084164;28;11176;-78
2021/11/16 03:31:20;;;;;;;;;24.75;18.75;;;;;;;;5089391;28;11111;-78
2021/11/16 03:33:48;;;;;;;;;18.25;17.25;;;;;;;;5089708;28;11211;-76
2021/11/16 03:36:17;;;;;;;;;16.75;14.75;;;;;;;;5101753;28;11154;-77
2021/11/16 03:38:44;;;;;;;;;21.75;20.75;;;;;;;;5093151;28;11188;-78
2021/11/16 03:41:12;;;;;;;;;15.00;15.00;;;;;;;;5085095;28;11047;-79
2021/11/16 03:43:41;;;;;;;;;17.50;15.25;;;;;;;;5084575;28;11850;-76
2021/11/16 03:46:09;;;;;;;;;14.25;13.50;;;;;;;;5089098;28;11284;-79
2021/11/16 03:48:39;;;;;;;;;20.50;19.00;;;;;;;;5083914;28;11263;-78
2021/11/16 03:51:06;;;;;;;;;22.00;18.25;;;;;;;;5085753;28;11500;-77
2021/11/16 03:53:33;;;;;;;;;21.75;19.25;;;;;;;;5077761;28;11283;-76
2021/11/16 03:56:01;;;;;;;;;25.50;17.50;;;;;;;;5081144;28;11583;-77
2021/11/16 03:58:29;;;;;;;;;22.00;15.00;;;;;;;;5082341;28;11189;-77
2021/11/16 04:01:02;;;;;;;;;22.50;19.50;;;;;;;;5083241;28;11469;-77
2021/11/16 04:03:32;;;;;;;;;21.00;17.25;;;;;;;;5081236;28;11296;-77
2021/11/16 04:06:01;;;;;;;;;22.00;18.00;;;;;;;;5091861;28;11277;-78
2021/11/16 04:08:29;;;;;;;;;21.00;17.25;;;;;;;;5086403;28;11187;-78
2021/11/16 04:10:56;;;;;;;;;19.25;19.25;;;;;;;;5097673;27;11177;-78
2021/11/16 04:13:24;;;;;;;;;23.00;18.75;;;;;;;;5084291;28;11322;-78
2021/11/16 04:15:52;;;;;;;;;19.00;17.50;;;;;;;;5089644;28;11281;-79
2021/11/16 04:18:21;;;;;;;;;24.75;22.25;;;;;;;;5095719;28;11509;-78
2021/11/16 04:20:51;;;;;;;;;18.50;15.50;;;;;;;;5092133;28;11503;-77
2021/11/16 04:23:20;;;;;;;;;22.25;17.50;;;;;;;;5086212;28;11500;-78
2021/11/16 04:25:47;;;;;;;;;22.25;16.00;;;;;;;;5083148;28;11637;-78
2021/11/16 04:28:16;;;;;;;;;19.75;16.25;;;;;;;;5084165;28;11830;-78
2021/11/16 04:30:44;;;;;;;;;15.50;10.75;;;;;;;;5081616;28;11825;-78
2021/11/16 04:33:12;;;;;;;;;19.50;19.50;;;;;;;;5092865;28;11562;-78
2021/11/16 04:35:39;;;;;;;;;24.75;20.00;;;;;;;;5082643;28;11606;-78
2021/11/16 04:38:08;;;;;;;;;20.50;19.25;;;;;;;;5083567;28;12165;-77
2021/11/16 04:40:40;;;;;;;;;18.75;17.25;;;;;;;;5070977;28;12116;-77
2021/11/16 04:43:11;;;;;;;;;24.50;16.00;;;;;;;;5085880;28;11486;-77
2021/11/16 04:45:40;;;;;;;;;14.00;14.00;;;;;;;;5082968;28;12897;-78
2021/11/16 04:48:12;;;;;;;;;18.25;17.75;;;;;;;;5084398;28;11579;-78
2021/11/16 04:50:53;;;;;;;;;23.50;17.75;;;;;;;;5084599;28;11483;-77
2021/11/16 04:53:54;;;;;;;;;32.25;20.00;;;;;;;;5083508;28;11498;-78
2021/11/16 05:04:37;;;;;;;;;29.75;22.25;;;;;;;;5089181;28;11481;-76
2021/11/16 05:07:10;;;;;;;;;16.50;15.00;;;;;;;;5083792;28;12356;-77
2021/11/16 05:09:37;;;;;;;;;19.25;16.75;;;;;;;;5082519;28;12320;-76
2021/11/16 05:12:07;;;;;;;;;20.50;17.00;;;;;;;;5090658;28;11153;-77
2021/11/16 05:14:35;;;;;;;;;25.50;21.00;;;;;;;;5090293;28;11938;-78
2021/11/16 05:17:02;;;;;;;;;19.50;15.00;;;;;;;;5089411;28;11429;-77
2021/11/16 05:19:30;;;;;;;;;18.75;17.50;;;;;;;;5088987;28;11344;-77
2021/11/16 05:21:58;;;;;;;;;24.50;20.25;;;;;;;;5088609;28;11166;-77
2021/11/16 05:24:25;;;;;;;;;16.00;14.25;;;;;;;;5089107;28;11511;-76
2021/11/16 05:26:52;;;;;;;;;22.50;16.25;;;;;;;;5084215;28;11502;-80
2021/11/16 05:29:22;;;;;;;;;21.25;18.25;;;;;;;;5083310;28;11317;-76
2021/11/16 05:31:49;;;;;;;;;22.75;17.00;;;;;;;;5089481;28;11221;-76
2021/11/16 05:34:17;;;;;;;;;23.50;18.00;;;;;;;;5083447;28;11536;-78
2021/11/16 05:36:44;;;;;;;;;17.50;16.00;;;;;;;;5083178;28;11482;-78
2021/11/16 05:39:12;;;;;;;;;20.00;16.75;;;;;;;;5080650;28;11218;-77
2021/11/16 05:41:39;;;;;;;;;23.25;18.00;;;;;;;;5080725;28;12227;-77
2021/11/16 05:44:09;;;;;;;;;14.00;14.00;;;;;;;;5082890;28;11511;-78
2021/11/16 05:46:37;;;;;;;;;20.75;19.00;;;;;;;;5083983;28;11595;-78
2021/11/16 05:49:05;;;;;;;;;14.00;14.00;;;;;;;;5078482;28;11524;-78
2021/11/16 05:51:32;;;;;;;;;24.75;23.00;;;;;;;;5085381;28;11454;-78
2021/11/16 05:54:02;;;;;;;;;25.25;19.75;;;;;;;;5086002;28;11516;-78
2021/11/16 05:56:31;;;;;;;;;22.50;15.50;;;;;;;;5087418;28;11271;-79
2021/11/16 05:59:00;;;;;;;;;27.75;17.75;;;;;;;;5083776;28;11248;-78
2021/11/16 06:01:30;;;;;;;;;25.25;20.75;;;;;;;;5081877;28;12261;-78
2021/11/16 06:04:00;;;;;;;;;21.25;19.25;;;;;;;;5086752;28;11496;-80
2021/11/16 06:06:29;;;;;;;;;14.00;11.25;;;;;;;;5082198;28;11507;-79
2021/11/16 06:08:58;;;;;;;;;18.25;15.50;;;;;;;;5088827;28;11497;-77
2021/11/16 06:11:27;;;;;;;;;19.00;14.25;;;;;;;;5086760;28;11325;-79
2021/11/16 06:13:56;;;;;;;;;27.00;20.00;;;;;;;;5087077;28;11598;-81
2021/11/16 06:16:23;;;;;;;;;18.75;16.25;;;;;;;;5082388;28;11525;-78
2021/11/16 06:18:52;;;;;;;;;29.50;20.75;;;;;;;;5084592;28;11494;-77
2021/11/16 06:21:22;;;;;;;;;16.25;16.25;;;;;;;;5086169;28;11531;-77
2021/11/16 06:23:50;;;;;;;;;32.25;19.00;;;;;;;;5083109;28;11539;-77
2021/11/16 06:26:17;;;;;;;;;20.00;19.00;;;;;;;;5082567;28;11538;-80
2021/11/16 06:28:44;;;;;;;;;27.75;20.50;;;;;;;;5084215;28;11596;-75
2021/11/16 06:31:12;;;;;;;;;20.50;18.00;;;;;;;;5084088;28;11207;-77
2021/11/16 06:33:40;;;;;;;;;28.25;20.75;;;;;;;;5084481;28;11527;-81
2021/11/16 06:36:08;;;;;;;;;24.00;19.00;;;;;;;;5085004;28;11537;-72
2021/11/16 06:38:37;;;;;;;;;23.25;19.00;;;;;;;;5085944;28;11491;-73
2021/11/16 06:41:04;;;;;;;;;19.25;16.50;;;;;;;;5084379;28;11322;-79
2021/11/16 06:43:34;;;;;;;;;25.50;21.75;;;;;;;;5085627;28;12255;-77
2021/11/16 06:46:03;;;;;;;;;22.00;21.25;;;;;;;;5084855;28;11638;-73
2021/11/16 06:48:31;;;;;;;;;20.75;15.50;;;;;;;;5084676;28;11489;-74
2021/11/16 06:50:59;;;;;;;;;19.00;15.25;;;;;;;;5083281;28;11521;-75
2021/11/16 06:53:27;;;;;;;;;16.00;16.00;;;;;;;;5083595;28;11569;-78
2021/11/16 06:55:56;;;;;;;;;14.75;14.25;;;;;;;;5084788;28;11576;-75
2021/11/16 06:58:24;;;;;;;;;18.25;17.00;;;;;;;;5076124;28;11222;-73
2021/11/16 07:00:52;;;;;;;;;15.75;14.25;;;;;;;;5079418;28;11152;-80
2021/11/16 07:03:22;;;;;;;;;30.25;22.00;;;;;;;;5065280;28;11197;-77
2021/11/16 07:05:49;;;;;;;;;20.75;19.75;;;;;;;;5069421;28;11635;-74
2021/11/16 07:08:29;;;;;;;;;21.75;19.50;;;;;;;;5068316;28;11488;-73
2021/11/16 07:11:04;;;;;;;;;5.25;1.75;;;;;;;;5073577;28;11544;-76
2021/11/16 07:13:32;;;;;;;;;17.00;12.25;;;;;;;;5064952;28;11212;-72
2021/11/16 07:15:59;;;;;;;;;26.25;18.75;;;;;;;;5069535;28;11154;-75
2021/11/16 07:18:26;;;;;;;;;19.00;19.00;;;;;;;;5065018;28;11217;-74
2021/11/16 07:21:00;;;;;;;;;22.75;16.25;;;;;;;;5071306;28;11518;-74
2021/11/16 07:23:28;;;;;;;;;28.25;24.75;;;;;;;;5073722;28;11240;-74
2021/11/16 07:25:56;;;;;;;;;62.50;52.25;;;;;;;;5075732;28;11592;-75
2021/11/16 07:28:24;;;;;;;;;44.50;32.00;;;;;;;;5109434;27;11624;-73
2021/11/16 07:30:52;;;;;;;;;14.25;12.25;;;;;;;;5069748;28;11508;-73
2021/11/16 07:33:20;;;;;;;;;18.50;15.00;;;;;;;;5078826;28;11161;-74
2021/11/16 07:35:47;;;;;;;;;20.50;19.00;;;;;;;;5089207;28;11289;-74
2021/11/16 07:38:18;;;;;;;;;17.00;15.00;;;;;;;;5085743;28;11624;-74
2021/11/16 07:40:48;;;;;;;;;18.25;18.25;;;;;;;;5075076;28;11255;-74
2021/11/16 07:43:17;;;;;;;;;20.00;17.50;;;;;;;;5105614;28;11090;-73
2021/11/16 07:45:51;;;;;;;;;19.50;16.00;;;;;;;;5097469;28;11529;-74
2021/11/16 07:48:21;;;;;;;;;24.75;19.00;;;;;;;;5085650;28;11368;-73
2021/11/16 07:50:51;;;;;;;;;13.00;13.00;;;;;;;;5089126;28;11198;-73
2021/11/16 07:53:22;;;;;;;;;15.25;9.75;;;;;;;;5099699;28;11014;-74
2021/11/16 07:55:59;;;;;;;;;18.50;13.75;;;;;;;;5104780;28;11198;-74
2021/11/16 07:58:31;;;;;;;;;15.75;14.25;;;;;;;;5087096;28;11081;-73
2021/11/16 08:01:02;;;;;;;;;14.50;14.50;;;;;;;;5079075;28;10983;-73
2021/11/16 08:03:40;;;;;;;;;15.75;14.25;;;;;;;;5077116;28;11073;-72
2021/11/16 08:06:13;;;;;;;;;15.00;12.75;;;;;;;;5081455;28;11329;-75
2021/11/16 08:08:54;;;;;;;;;23.75;16.00;;;;;;;;5084959;28;11245;-72
2021/11/16 08:11:26;;;;;;;;;16.75;9.00;;;;;;;;5087018;28;11161;-75
2021/11/16 08:14:00;;;;;;;;;15.25;10.75;;;;;;;;5075982;28;11175;-75
2021/11/16 08:16:29;;;;;;;;;18.25;11.25;;;;;;;;5082451;28;12060;-74
2021/11/16 08:19:02;;;;;;;;;15.25;14.00;;;;;;;;5076352;28;11494;-75
2021/11/16 08:21:30;;;;;;;;;17.25;14.25;;;;;;;;5083709;28;11237;-75
2021/11/16 08:24:02;;;;;;;;;15.25;14.25;;;;;;;;5113733;27;11032;-75
2021/11/16 08:26:35;;;;;;;;;14.25;14.25;;;;;;;;5070396;28;11246;-75
2021/11/16 08:29:03;;;;;;;;;17.75;17.75;;;;;;;;5080267;28;11465;-76
2021/11/16 08:31:41;;;;;;;;;24.25;24.25;;;;;;;;5095456;27;11489;-76
2021/11/16 08:34:09;;;;;;;;;25.75;18.75;;;;;;;;5079840;28;12308;-74
2021/11/16 08:36:46;;;;;;;;;28.75;21.25;;;;;;;;5083558;28;11534;-76
2021/11/16 08:39:13;;;;;;;;;28.75;23.75;;;;;;;;5113222;27;11478;-76
2021/11/16 08:41:41;;;;;;;;;19.00;19.00;;;;;;;;5085336;28;11607;-76
2021/11/16 08:44:15;;;;;;;;;20.25;14.50;;;;;;;;5085487;28;11296;-74
2021/11/16 08:46:47;;;;;;;;;27.75;24.00;;;;;;;;5079858;28;11301;-78
2021/11/16 08:49:35;;;;;;;;;25.75;23.75;;;;;;;;5084077;28;11491;-77
2021/11/16 08:52:14;;;;;;;;;23.50;19.25;;;;;;;;5086498;28;11228;-76
2021/11/16 08:54:42;;;;;;;;;17.75;13.50;;;;;;;;5080217;28;11219;-76
2021/11/16 08:57:19;;;;;;;;;21.25;19.50;;;;;;;;5081223;28;11167;-76
2021/11/16 08:59:46;;;;;;;;;18.75;18.00;;;;;;;;5077515;28;11067;-76
2021/11/16 09:02:18;;;;;;;;;19.00;15.50;;;;;;;;5077043;28;11134;-75
2021/11/16 09:04:46;;;;;;;;;16.00;12.75;;;;;;;;5080065;28;11144;-76
2021/11/16 09:07:24;;;;;;;;;10.00;10.00;;;;;;;;5086062;28;11117;-76
2021/11/16 09:09:58;;;;;;;;;14.25;14.00;;;;;;;;5086868;28;10924;-76
2021/11/16 09:12:35;;;;;;;;;16.25;14.75;;;;;;;;5079673;28;11136;-77
2021/11/16 09:15:03;;;;;;;;;12.75;12.75;;;;;;;;5077872;28;11137;-74
2021/11/16 09:17:32;;;;;;;;;18.50;13.50;;;;;;;;5083311;28;11038;-72
2021/11/16 09:20:14;;;;;;;;;17.50;15.50;;;;;;;;5088906;28;11099;-73
2021/11/16 09:22:42;;;;;;;;;13.75;13.75;;;;;;;;5081341;28;11117;-72
2021/11/16 09:25:31;;;;;;;;;20.50;16.25;;;;;;;;5079156;28;10989;-72
2021/11/16 09:30:44;;;;;;;;;16.00;15.00;;;;;;;;5071546;28;10895;-72
2021/11/16 09:33:20;;;;;;;;;13.25;12.25;;;;;;;;5101836;28;10998;-72
2021/11/16 09:35:57;;;;;;;;;15.50;14.75;;;;;;;;5085002;28;10870;-72
2021/11/16 09:38:46;;;;;;;;;13.50;11.25;;;;;;;;5100950;28;10830;-72
2021/11/16 09:41:22;;;;;;;;;10.25;7.75;;;;;;;;5104741;28;10780;-72
2021/11/16 09:43:57;;;;;;;;;15.75;10.75;;;;;;;;5081271;28;10802;-72
2021/11/16 09:46:24;;;;;;;;;16.00;14.50;;;;;;;;5081118;28;10820;-73
2021/11/16 09:48:59;;;;;;;;;18.25;16.25;;;;;;;;5086562;28;11471;-72
2021/11/16 09:51:26;;;;;;;;;16.00;13.00;;;;;;;;5074326;28;11405;-74
2021/11/16 09:54:03;;;;;;;;;19.00;18.00;;;;;;;;5085114;28;10640;-72
2021/11/16 09:56:31;;;;;;;;;11.50;10.50;;;;;;;;5068405;28;10666;-72
2021/11/16 09:58:59;;;;;;;;;15.75;13.25;;;;;;;;5081873;28;10542;-73
2021/11/16 10:01:30;;;;;;;;;10.75;10.75;;;;;;;;5094073;27;11276;-72
2021/11/16 10:04:11;;;;;;;;;16.25;12.00;;;;;;;;5075885;28;11785;-73
2021/11/16 10:06:39;;;;;;;;;11.75;11.50;;;;;;;;5083200;28;10639;-72
2021/11/16 10:09:09;;;;;;;;;12.75;11.00;;;;;;;;5089696;28;10706;-73
2021/11/16 10:11:40;;;;;;;;;19.25;16.75;;;;;;;;5102980;28;10840;-73
2021/11/16 10:14:09;;;;;;;;;14.50;11.00;;;;;;;;5100814;28;10948;-72
2021/11/16 10:16:37;;;;;;;;;12.25;12.25;;;;;;;;5092568;28;11725;-72
2021/11/16 10:19:05;;;;;;;;;16.75;12.25;;;;;;;;5092401;28;10986;-72
2021/11/16 10:21:34;;;;;;;;;14.25;14.25;;;;;;;;5093102;28;10970;-73
2021/11/16 10:24:02;;;;;;;;;10.50;9.50;;;;;;;;5094317;28;11101;-73
2021/11/16 10:26:34;;;;;;;;;14.25;12.75;;;;;;;;5084237;28;10952;-72
2021/11/16 10:29:02;;;;;;;;;18.25;10.25;;;;;;;;5089960;28;11113;-72
2021/11/16 10:31:32;;;;;;;;;15.75;10.00;;;;;;;;5097220;27;10980;-72
2021/11/16 10:34:00;;;;;;;;;0.00;0.00;;;;;;;;5097896;28;11238;-72
2021/11/16 10:36:28;;;;;;;;;22.00;20.50;;;;;;;;5094349;28;10829;-72
2021/11/16 10:39:00;;;;;;;;;25.75;23.25;;;;;;;;5082714;28;11254;-73
2021/11/16 10:41:29;;;;;;;;;14.00;10.50;;;;;;;;5087328;28;11626;-73
2021/11/16 10:43:59;;;;;;;;;12.75;11.50;;;;;;;;5082275;28;10856;-72
2021/11/16 10:46:28;;;;;;;;;11.50;10.00;;;;;;;;5088353;28;10939;-72
2021/11/16 10:48:58;;;;;;;;;11.00;11.00;;;;;;;;5094860;28;10769;-73
2021/11/16 10:51:29;;;;;;;;;31.50;30.50;;;;;;;;5094464;28;10937;-73
2021/11/16 10:53:58;;;;;;;;;14.75;13.00;;;;;;;;5079945;28;11588;-73
2021/11/16 10:56:28;;;;;;;;;22.50;19.00;;;;;;;;5095978;28;10928;-73
2021/11/16 10:58:56;;;;;;;;;15.00;14.25;;;;;;;;5084933;28;10897;-72
2021/11/16 11:01:25;;;;;;;;;17.25;16.50;;;;;;;;5083836;28;10781;-73
2021/11/16 11:03:55;;;;;;;;;18.00;16.00;;;;;;;;5084688;28;10898;-73
2021/11/16 11:06:23;;;;;;;;;18.25;15.00;;;;;;;;5079526;28;11051;-76
2021/11/16 11:08:51;;;;;;;;;20.00;16.00;;;;;;;;5078775;28;11039;-74
2021/11/16 11:11:28;;;;;;;;;11.00;11.00;;;;;;;;5089216;28;11746;-76
2021/11/16 11:14:02;;;;;;;;;18.75;16.25;;;;;;;;5087763;28;10869;-74
2021/11/16 11:16:30;;;;;;;;;11.25;10.50;;;;;;;;5090718;28;11408;-76
2021/11/16 11:18:58;;;;;;;;;40.50;35.75;;;;;;;;5078333;28;10924;-75
2021/11/16 11:21:32;;;;;;;;;26.50;24.50;;;;;;;;5083569;28;11591;-76
2021/11/16 11:24:06;;;;;;;;;50.00;42.00;;;;;;;;5093504;28;11336;-75
2021/11/16 11:26:41;;;;;;;;;26.25;24.75;;;;;;;;5082884;28;12335;-74
2021/11/16 11:29:21;;;;;;;;;30.25;28.50;;;;;;;;5080748;28;11111;-75
2021/11/16 11:31:55;;;;;;;;;21.50;21.50;;;;;;;;5079996;28;11517;-75
2021/11/16 11:34:32;;;;;;;;;26.50;19.75;;;;;;;;5089099;28;11054;-76
2021/11/16 11:37:03;;;;;;;;;20.00;15.50;;;;;;;;5088386;28;11702;-75
2021/11/16 11:39:32;;;;;;;;;26.00;22.00;;;;;;;;5094975;28;10946;-76
2021/11/16 11:42:02;;;;;;;;;30.25;26.25;;;;;;;;5089234;28;10992;-75
2021/11/16 11:44:38;;;;;;;;;19.50;19.00;;;;;;;;5082027;28;11046;-76
2021/11/16 11:47:06;;;;;;;;;14.50;12.00;;;;;;;;5087414;28;10732;-75
2021/11/16 11:49:34;;;;;;;;;7.50;7.50;;;;;;;;5086673;28;10399;-74
2021/11/16 11:52:04;;;;;;;;;11.00;11.00;;;;;;;;5090050;28;11211;-75
2021/11/16 11:54:31;;;;;;;;;9.25;7.25;;;;;;;;5085957;28;10410;-74
2021/11/16 11:57:00;;;;;;;;;13.00;8.00;;;;;;;;5079526;28;10361;-74
2021/11/16 11:59:29;;;;;;;;;8.00;8.00;;;;;;;;5083565;28;10430;-75
2021/11/16 12:01:56;;;;;;;;;7.50;7.00;;;;;;;;5078449;27;11232;-76
2021/11/16 12:04:24;;;;;;;;;10.25;8.00;;;;;;;;5112008;27;10317;-75
2021/11/16 12:06:53;;;;;;;;;10.00;10.00;;;;;;;;5079596;28;10285;-73
2021/11/16 12:09:21;;;;;;;;;14.00;11.50;;;;;;;;5084459;28;10479;-73
2021/11/16 12:11:49;;;;;;;;;10.00;7.75;;;;;;;;5076421;28;10421;-75
2021/11/16 12:14:39;;;;;;;;;7.50;7.50;;;;;;;;5082883;28;11579;-74
2021/11/16 12:17:08;;;;;;;;;11.75;10.00;;;;;;;;5078902;28;10320;-75
2021/11/16 12:19:42;;;;;;;;;13.00;13.00;;;;;;;;5081902;28;10492;-74
2021/11/16 12:22:16;;;;;;;;;15.75;12.25;;;;;;;;5081442;28;10603;-72
2021/11/16 12:24:46;;;;;;;;;11.00;9.50;;;;;;;;5081547;28;10561;-75
2021/11/16 12:27:16;;;;;;;;;13.75;10.75;;;;;;;;5082419;28;10598;-73
2021/11/16 12:29:47;;;;;;;;;12.00;10.00;;;;;;;;5086368;28;10812;-73
2021/11/16 12:32:18;;;;;;;;;9.00;9.00;;;;;;;;5076451;28;10518;-75
2021/11/16 12:34:50;;;;;;;;;6.75;6.75;;;;;;;;5078649;28;10848;-76
2021/11/16 12:37:43;;;;;;;;;11.25;7.50;;;;;;;;5076806;28;10657;-76
2021/11/16 12:40:14;;;;;;;;;14.75;9.75;;;;;;;;5080653;28;10653;-74
2021/11/16 12:43:11;;;;;;;;;9.00;9.00;;;;;;;;5086178;28;10638;-74
2021/11/16 12:45:43;;;;;;;;;10.00;10.00;;;;;;;;5082734;28;10718;-73
2021/11/16 12:48:12;;;;;;;;;16.00;13.75;;;;;;;;5081100;28;10742;-73
2021/11/16 12:50:39;;;;;;;;;11.75;9.75;;;;;;;;5085502;28;10881;-73
2021/11/16 12:53:07;;;;;;;;;11.50;9.50;;;;;;;;5082591;28;10992;-73
2021/11/16 12:55:36;;;;;;;;;16.00;11.50;;;;;;;;5080036;28;11096;-73
2021/11/16 12:58:23;;;;;;;;;13.75;13.75;;;;;;;;5078777;28;11124;-73
2021/11/16 13:00:52;;;;;;;;;8.50;6.25;;;;;;;;5081723;28;11107;-74
2021/11/16 13:03:35;;;;;;;;;9.50;7.75;;;;;;;;5088566;28;12186;-74
2021/11/16 13:06:13;;;;;;;;;11.00;8.25;;;;;;;;5086866;28;10886;-73
2021/11/16 13:08:40;;;;;;;;;13.75;11.00;;;;;;;;5103662;28;10984;-73
2021/11/16 13:11:07;;;;;;;;;15.25;10.50;;;;;;;;5090029;28;11005;-73
2021/11/16 13:13:44;;;;;;;;;9.50;9.25;;;;;;;;5104241;28;11224;-73
2021/11/16 13:16:24;;;;;;;;;13.25;10.50;;;;;;;;5102918;28;11067;-73
2021/11/16 13:18:56;;;;;;;;;11.75;9.50;;;;;;;;5088760;28;11175;-73
2021/11/16 13:21:25;;;;;;;;;12.75;10.25;;;;;;;;5082875;28;11496;-73
2021/11/16 13:23:59;;;;;;;;;10.25;9.00;;;;;;;;5083174;28;12426;-73
2021/11/16 13:26:30;;;;;;;;;12.25;11.00;;;;;;;;5084532;28;12280;-73
2021/11/16 13:31:51;;;;;;;;;16.00;12.75;;;;;;;;5103078;27;11437;-72
2021/11/16 13:34:20;;;;;;;;;9.75;9.50;;;;;;;;5103949;28;11489;-73
2021/11/16 13:36:53;;;;;;;;;42.25;38.00;;;;;;;;5102847;28;12324;-72
2021/11/16 13:39:26;;;;;;;;;55.50;41.25;;;;;;;;5090391;28;12350;-73
2021/11/16 13:41:57;;;;;;;;;53.75;41.50;;;;;;;;5082578;28;11620;-73
2021/11/16 13:44:27;;;;;;;;;37.00;28.50;;;;;;;;5084079;28;11645;-73
2021/11/16 13:47:02;;;;;;;;;31.25;28.75;;;;;;;;5102837;28;11515;-73
2021/11/16 13:49:33;;;;;;;;;28.50;27.00;;;;;;;;5103629;28;12218;-73
2021/11/16 13:52:19;;;;;;;;;24.75;24.25;;;;;;;;5098813;28;11507;-72
2021/11/16 13:54:49;;;;;;;;;27.25;26.00;;;;;;;;5076859;28;11523;-73
2021/11/16 13:57:20;;;;;;;;;19.25;16.50;;;;;;;;5100917;28;11634;-74
2021/11/16 13:59:55;;;;;;;;;24.25;24.00;;;;;;;;5102707;28;11063;-74
2021/11/16 14:02:24;;;;;;;;;35.25;28.50;;;;;;;;5084248;28;11167;-74
2021/11/16 14:04:56;;;;;;;;;20.25;20.25;;;;;;;;5083025;28;11561;-74
2021/11/16 14:07:24;;;;;;;;;27.25;22.25;;;;;;;;5085049;28;11121;-72
2021/11/16 14:10:22;;;;;;;;;29.50;23.25;;;;;;;;5102388;28;11332;-72
2021/11/16 14:12:51;;;;;;;;;19.50;18.50;;;;;;;;5024873;28;11193;-72
2021/11/16 14:15:24;;;;;;;;;13.00;10.25;;;;;;;;5093213;27;11006;-72
2021/11/16 14:18:17;;;;;;;;;26.00;21.00;;;;;;;;5105076;28;11759;-72
2021/11/16 14:20:46;;;;;;;;;26.25;22.50;;;;;;;;5106090;28;10989;-73
2021/11/16 14:23:16;;;;;;;;;21.00;20.75;;;;;;;;5106741;28;11093;-73
2021/11/16 14:25:49;;;;;;;;;20.50;19.50;;;;;;;;5093667;28;11065;-73
2021/11/16 14:28:18;;;;;;;;;26.00;24.25;;;;;;;;5076537;28;11049;-73
2021/11/16 14:30:46;;;;;;;;;22.75;21.00;;;;;;;;5104314;28;10904;-73
2021/11/16 14:33:16;;;;;;;;;23.75;20.00;;;;;;;;5106753;28;11145;-73
2021/11/16 14:35:48;;;;;;;;;27.00;25.25;;;;;;;;5097377;28;10982;-73
2021/11/16 14:38:15;;;;;;;;;29.75;22.50;;;;;;;;5101333;28;10976;-74
2021/11/16 14:40:43;;;;;;;;;20.00;19.25;;;;;;;;5083384;28;11181;-73
2021/11/16 14:43:21;;;;;;;;;23.00;18.00;;;;;;;;5085275;28;11134;-73
2021/11/16 14:45:48;;;;;;;;;22.50;22.50;;;;;;;;5084571;28;10893;-73
2021/11/16 14:48:26;;;;;;;;;16.00;15.00;;;;;;;;5084373;28;11008;-74
2021/11/16 14:51:05;;;;;;;;;15.00;13.50;;;;;;;;5085173;28;11714;-73